createdAt,value
2018-10-16T00:00:57.714Z,16.40
2018-10-16T00:02:59.995Z,16.40
2018-10-16T00:05:02.249Z,16.30
2018-10-16T00:07:04.639Z,16.40
2018-10-16T00:09:08.097Z,16.40
2018-10-16T00:11:10.383Z,16.40
2018-10-16T00:13:12.597Z,16.40
2018-10-16T00:15:14.887Z,16.30
2018-10-16T00:17:17.179Z,16.30
2018-10-16T00:19:19.382Z,16.30
2018-10-16T00:21:21.618Z,16.30
2018-10-16T00:23:23.932Z,16.20
2018-10-16T00:25:26.164Z,16.30
2018-10-16T00:27:28.428Z,16.30
2018-10-16T00:29:30.799Z,16.20
2018-10-16T00:31:33.023Z,16.20
2018-10-16T00:33:35.250Z,16.10
2018-10-16T00:35:37.969Z,16.10
2018-10-16T00:37:40.193Z,16.20
2018-10-16T00:39:42.434Z,16.10
2018-10-16T00:41:49.472Z,16.40
2018-10-16T00:43:51.726Z,16.40
2018-10-16T00:45:54.011Z,16.20
2018-10-16T00:47:56.275Z,16.30
2018-10-16T00:49:58.491Z,16.40
2018-10-16T00:52:00.878Z,16.60
2018-10-16T00:54:03.100Z,16.60
2018-10-16T00:56:05.347Z,16.70
2018-10-16T00:58:07.530Z,16.80
2018-10-16T01:00:10.838Z,16.80
2018-10-16T01:02:13.051Z,16.80
2018-10-16T01:04:15.370Z,16.80
2018-10-16T01:06:17.650Z,16.70
2018-10-16T01:08:19.887Z,16.70
2018-10-16T01:10:22.354Z,16.70
2018-10-16T01:12:24.635Z,16.70
2018-10-16T01:14:26.899Z,16.60
2018-10-16T01:16:29.178Z,16.60
2018-10-16T01:18:31.477Z,16.50
2018-10-16T01:20:33.752Z,16.50
2018-10-16T01:22:36.279Z,16.30
2018-10-16T01:24:38.488Z,16.30
2018-10-16T01:26:40.728Z,16.20
2018-10-16T01:28:42.955Z,16.10
2018-10-16T01:30:45.151Z,16.10
2018-10-16T01:32:47.330Z,16.00
2018-10-16T01:34:49.536Z,16.00
2018-10-16T01:36:51.738Z,16.00
2018-10-16T01:38:54.000Z,16.00
2018-10-16T01:40:56.248Z,16.00
2018-10-16T01:42:58.500Z,16.20
2018-10-16T01:45:00.753Z,16.10
2018-10-16T01:47:02.923Z,16.10
2018-10-16T01:49:05.332Z,16.10
2018-10-16T01:51:07.941Z,16.10
2018-10-16T01:53:10.178Z,16.00
2018-10-16T01:55:12.433Z,16.00
2018-10-16T01:57:14.701Z,16.00
2018-10-16T01:59:16.942Z,16.00
2018-10-16T02:01:19.139Z,16.00
2018-10-16T02:03:22.127Z,16.00
2018-10-16T02:05:24.692Z,15.80
2018-10-16T02:07:26.911Z,15.70
2018-10-16T02:09:29.182Z,15.70
2018-10-16T02:11:31.375Z,15.70
2018-10-16T02:13:33.604Z,15.70
2018-10-16T02:15:36.259Z,15.60
2018-10-16T02:17:39.439Z,15.50
2018-10-16T02:19:41.709Z,15.60
2018-10-16T02:21:43.999Z,15.60
2018-10-16T02:23:46.206Z,15.60
2018-10-16T02:25:48.443Z,15.50
2018-10-16T02:27:50.724Z,15.50
2018-10-16T02:29:52.953Z,15.50
2018-10-16T02:34:04.662Z,15.50
2018-10-16T02:36:06.918Z,15.60
2018-10-16T02:38:09.165Z,15.60
2018-10-16T02:40:11.424Z,15.50
2018-10-16T02:46:36.711Z,15.50
2018-10-16T02:48:39.548Z,15.40
2018-10-16T02:50:41.932Z,15.40
2018-10-16T02:52:44.174Z,15.40
2018-10-16T02:54:46.397Z,15.50
2018-10-16T02:56:48.675Z,15.40
2018-10-16T02:58:50.914Z,15.30
2018-10-16T03:00:53.430Z,15.30
2018-10-16T03:02:55.628Z,15.10
2018-10-16T03:04:57.878Z,15.20
2018-10-16T03:07:00.151Z,15.30
2018-10-16T03:09:02.448Z,15.30
2018-10-16T03:11:05.086Z,15.20
2018-10-16T03:13:07.510Z,15.30
2018-10-16T03:15:11.546Z,15.30
2018-10-16T03:17:13.803Z,15.30
2018-10-16T03:32:10.216Z,15.10
2018-10-16T03:34:12.488Z,15.10
2018-10-16T03:36:14.679Z,15.10
2018-10-16T03:38:16.852Z,15.10
2018-10-16T03:40:19.098Z,15.10
2018-10-16T03:42:21.417Z,15.10
2018-10-16T03:44:23.656Z,15.10
2018-10-16T03:46:26.123Z,15.10
2018-10-16T03:48:28.346Z,15.10
2018-10-16T03:50:30.562Z,15.20
2018-10-16T03:52:33.131Z,15.30
2018-10-16T03:54:35.407Z,15.20
2018-10-16T03:56:37.695Z,15.20
2018-10-16T03:58:39.933Z,15.30
2018-10-16T04:00:42.419Z,15.30
2018-10-16T04:02:44.783Z,15.20
2018-10-16T04:04:46.972Z,15.30
2018-10-16T04:06:49.200Z,15.20
2018-10-16T04:08:52.389Z,15.20
2018-10-16T04:10:54.752Z,15.10
2018-10-16T04:12:56.996Z,15.20
2018-10-16T04:14:59.337Z,15.20
2018-10-16T04:17:01.794Z,15.10
2018-10-16T04:19:04.796Z,15.10
2018-10-16T04:21:07.859Z,15.20
2018-10-16T04:23:10.293Z,15.30
2018-10-16T04:25:12.525Z,15.20
2018-10-16T04:27:14.911Z,15.20
2018-10-16T04:29:17.236Z,15.20
2018-10-16T04:31:19.343Z,15.20
2018-10-16T04:33:21.656Z,15.10
2018-10-16T04:35:24.041Z,15.10
2018-10-16T04:37:26.376Z,14.90
2018-10-16T04:39:28.672Z,15.10
2018-10-16T04:41:32.048Z,15.40
2018-10-16T04:43:34.253Z,15.20
2018-10-16T04:45:37.188Z,15.00
2018-10-16T04:47:39.949Z,15.00
2018-10-16T04:49:42.200Z,14.80
2018-10-16T04:51:44.430Z,14.70
2018-10-16T04:53:47.304Z,14.80
2018-10-16T04:55:51.373Z,14.50
2018-10-16T04:57:54.492Z,14.60
2018-10-16T04:59:56.864Z,14.50
2018-10-16T05:01:59.183Z,14.60
2018-10-16T05:04:01.515Z,14.50
2018-10-16T05:06:03.845Z,14.70
2018-10-16T05:08:08.246Z,14.70
2018-10-16T05:10:14.449Z,14.70
2018-10-16T05:12:19.545Z,14.80
2018-10-16T05:14:22.204Z,14.90
2018-10-16T05:16:24.667Z,14.90
2018-10-16T05:18:26.768Z,15.10
2018-10-16T05:38:41.567Z,15.40
2018-10-16T05:40:43.712Z,15.60
2018-10-16T05:42:45.838Z,15.60
2018-10-16T05:44:47.973Z,15.60
2018-10-16T05:46:50.119Z,15.60
2018-10-16T05:48:52.278Z,15.60
2018-10-16T05:50:54.410Z,15.50
2018-10-16T05:52:56.527Z,15.50
2018-10-16T05:54:58.698Z,15.50
2018-10-16T05:57:00.814Z,15.40
2018-10-16T05:59:03.004Z,15.50
2018-10-16T06:01:05.259Z,15.50
2018-10-16T06:03:07.547Z,15.60
2018-10-16T06:05:10.205Z,15.50
2018-10-16T06:07:12.346Z,15.40
2018-10-16T06:09:14.523Z,15.40
2018-10-16T06:11:16.930Z,15.50
2018-10-16T06:13:19.046Z,15.40
2018-10-16T06:15:21.177Z,15.30
2018-10-16T06:17:23.330Z,15.50
2018-10-16T06:19:25.472Z,15.50
2018-10-16T06:21:27.617Z,15.40
2018-10-16T06:23:29.779Z,15.40
2018-10-16T06:25:31.926Z,15.40
2018-10-16T06:27:34.062Z,15.40
2018-10-16T06:29:36.199Z,15.40
2018-10-16T06:31:38.364Z,15.50
2018-10-16T06:33:40.750Z,15.50
2018-10-16T06:35:42.890Z,15.60
2018-10-16T06:37:45.015Z,15.80
2018-10-16T06:39:47.146Z,16.10
2018-10-16T06:41:49.519Z,16.00
2018-10-16T06:43:52.056Z,15.80
2018-10-16T06:45:54.269Z,15.90
2018-10-16T06:47:56.411Z,15.80
2018-10-16T06:49:58.550Z,15.70
2018-10-16T06:52:00.840Z,15.70
2018-10-16T06:54:03.014Z,15.70
2018-10-16T06:56:05.546Z,15.70
2018-10-16T06:58:07.690Z,15.70
2018-10-16T07:00:09.846Z,15.50
2018-10-16T07:02:11.968Z,15.60
2018-10-16T07:04:14.331Z,15.60
2018-10-16T07:06:16.453Z,15.70
2018-10-16T07:08:18.594Z,15.80
2018-10-16T07:10:20.942Z,15.60
2018-10-16T07:12:23.090Z,15.90
2018-10-16T07:14:25.303Z,15.90
2018-10-16T07:16:27.975Z,15.70
2018-10-16T07:18:30.101Z,15.50
2018-10-16T07:20:32.225Z,15.60
2018-10-16T07:22:34.528Z,15.70
2018-10-16T07:24:36.651Z,15.90
2018-10-16T07:26:38.778Z,15.90
2018-10-16T07:28:40.954Z,15.70
2018-10-16T07:30:43.095Z,15.60
2018-10-16T07:32:45.248Z,15.90
2018-10-16T07:34:47.429Z,16.00
2018-10-16T07:36:49.843Z,15.80
2018-10-16T07:38:52.078Z,15.70
2018-10-16T07:40:54.098Z,15.80
2018-10-16T07:42:56.223Z,15.80
2018-10-16T07:44:58.380Z,15.70
2018-10-16T07:47:00.526Z,15.70
2018-10-16T07:49:02.696Z,15.70
2018-10-16T07:51:05.490Z,15.70
2018-10-16T07:53:07.659Z,15.70
2018-10-16T07:55:12.950Z,16.00
2018-10-16T07:57:15.170Z,16.30
2018-10-16T07:59:17.346Z,16.20
2018-10-16T08:01:19.714Z,16.20
2018-10-16T08:03:21.878Z,16.30
2018-10-16T08:05:24.008Z,16.20
2018-10-16T08:07:26.367Z,16.10
2018-10-16T08:09:28.513Z,16.30
2018-10-16T08:11:30.745Z,16.20
2018-10-16T08:13:32.850Z,16.20
2018-10-16T08:15:35.135Z,16.30
2018-10-16T08:17:37.362Z,16.30
2018-10-16T08:19:39.634Z,16.30
2018-10-16T08:21:42.190Z,16.10
2018-10-16T08:23:44.319Z,16.30
2018-10-16T08:25:46.618Z,16.30
2018-10-16T08:27:48.742Z,16.50
2018-10-16T08:29:50.866Z,16.50
2018-10-16T08:31:53.245Z,16.60
2018-10-16T08:33:55.475Z,16.70
2018-10-16T08:35:57.625Z,16.70
2018-10-16T08:38:35.877Z,16.90
2018-10-16T08:40:38.047Z,17.10
2018-10-16T08:43:23.379Z,17.30
2018-10-16T08:45:37.063Z,17.50
2018-10-16T08:47:50.718Z,17.60
2018-10-16T08:50:04.362Z,17.30
2018-10-16T08:52:06.482Z,17.20
2018-10-16T08:54:09.014Z,17.60
2018-10-16T08:56:11.263Z,17.90
2018-10-16T08:58:13.367Z,18.10
2018-10-16T09:00:15.538Z,18.10
2018-10-16T09:02:17.675Z,18.30
2018-10-16T09:04:19.847Z,18.70
2018-10-16T09:06:21.982Z,18.90
2018-10-16T09:08:24.255Z,19.10
2018-10-16T09:10:26.855Z,19.20
2018-10-16T09:12:30.122Z,19.40
2018-10-16T09:14:32.367Z,18.80
2018-10-16T09:16:34.434Z,18.60
2018-10-16T09:18:36.834Z,18.70
2018-10-16T09:20:39.043Z,19.00
2018-10-16T09:22:41.210Z,19.10
2018-10-16T09:24:43.394Z,19.40
2018-10-16T09:26:45.600Z,19.40
2018-10-16T09:28:47.773Z,19.20
2018-10-16T09:30:49.979Z,18.90
2018-10-16T09:32:52.459Z,18.90
2018-10-16T09:34:54.669Z,19.00
2018-10-16T09:36:56.850Z,19.10
2018-10-16T09:38:59.030Z,19.20
2018-10-16T09:41:01.200Z,19.30
2018-10-16T09:43:03.570Z,19.50
2018-10-16T09:45:06.384Z,19.70
2018-10-16T09:47:08.771Z,19.60
2018-10-16T09:49:10.930Z,19.80
2018-10-16T09:51:13.043Z,19.70
2018-10-16T09:53:15.217Z,19.80
2018-10-16T09:55:17.392Z,19.90
2018-10-16T09:57:19.581Z,19.60
2018-10-16T09:59:21.795Z,19.50
2018-10-16T10:01:29.698Z,19.50
2018-10-16T10:03:31.875Z,19.60
2018-10-16T10:05:34.382Z,19.80
2018-10-16T10:07:36.543Z,19.70
2018-10-16T10:09:38.688Z,19.80
2018-10-16T10:11:41.008Z,19.70
2018-10-16T10:13:43.166Z,19.80
2018-10-16T10:15:45.330Z,19.80
2018-10-16T10:17:47.726Z,19.80
2018-10-16T10:19:49.876Z,19.80
2018-10-16T10:21:52.106Z,19.80
2018-10-16T10:23:54.324Z,19.70
2018-10-16T10:25:56.484Z,19.70
2018-10-16T10:27:58.823Z,19.90
2018-10-16T10:30:01.481Z,20.00
2018-10-16T10:32:04.465Z,20.00
2018-10-16T10:34:06.606Z,20.20
2018-10-16T10:36:08.840Z,20.20
2018-10-16T10:38:11.892Z,20.20
2018-10-16T10:40:14.046Z,20.10
2018-10-16T10:42:16.252Z,20.10
2018-10-16T10:44:18.371Z,20.20
2018-10-16T10:46:20.516Z,20.20
2018-10-16T10:48:22.700Z,20.10
2018-10-16T10:50:25.153Z,20.10
2018-10-16T10:52:29.044Z,20.00
2018-10-16T10:54:31.222Z,20.10
2018-10-16T10:56:33.484Z,20.00
2018-10-16T10:58:35.558Z,19.90
2018-10-16T11:00:37.836Z,19.90
2018-10-16T11:02:40.722Z,19.90
2018-10-16T11:04:42.838Z,19.90
2018-10-16T11:06:45.009Z,20.00
2018-10-16T11:08:47.371Z,20.00
2018-10-16T11:10:49.558Z,20.00
2018-10-16T11:12:51.708Z,20.10
2018-10-16T11:14:53.932Z,20.10
2018-10-16T11:16:56.078Z,20.20
2018-10-16T11:18:58.203Z,20.20
2018-10-16T11:21:00.635Z,20.30
2018-10-16T11:23:02.755Z,20.30
2018-10-16T11:25:05.835Z,20.40
2018-10-16T11:27:07.999Z,20.30
2018-10-16T11:29:10.176Z,20.40
2018-10-16T11:31:12.414Z,20.50
2018-10-16T11:33:14.602Z,20.50
2018-10-16T11:35:16.792Z,20.60
2018-10-16T11:37:19.193Z,20.60
2018-10-16T11:39:21.365Z,20.70
2018-10-16T11:41:23.513Z,20.80
2018-10-16T11:43:25.686Z,20.70
2018-10-16T11:45:27.794Z,20.70
2018-10-16T11:47:29.929Z,20.90
2018-10-16T11:49:32.105Z,20.80
2018-10-16T11:51:34.538Z,20.80
2018-10-16T11:53:36.807Z,20.70
2018-10-16T11:55:38.976Z,20.60
2018-10-16T11:57:41.162Z,20.60
2018-10-16T11:59:43.470Z,20.50
2018-10-16T12:01:45.607Z,20.40
2018-10-16T12:03:47.833Z,20.30
2018-10-16T12:05:50.318Z,20.30
2018-10-16T12:07:52.393Z,20.30
2018-10-16T12:09:54.536Z,20.30
2018-10-16T12:11:56.718Z,20.20
2018-10-16T12:13:58.887Z,20.10
2018-10-16T12:16:01.187Z,20.10
2018-10-16T12:18:09.353Z,20.00
2018-10-16T12:20:15.386Z,20.00
2018-10-16T12:22:17.509Z,20.00
2018-10-16T12:24:19.865Z,20.00
2018-10-16T12:26:22.031Z,20.00
2018-10-16T12:28:24.202Z,20.00
2018-10-16T12:30:26.337Z,20.10
2018-10-16T12:32:28.503Z,20.10
2018-10-16T12:34:30.640Z,20.10
2018-10-16T12:36:32.875Z,20.20
2018-10-16T12:38:35.421Z,20.20
2018-10-16T12:40:37.539Z,20.20
2018-10-16T12:42:39.750Z,20.20
2018-10-16T12:44:41.863Z,20.30
2018-10-16T12:46:44.199Z,20.40
2018-10-16T12:48:46.362Z,20.40
2018-10-16T12:50:48.498Z,20.50
2018-10-16T12:52:50.681Z,20.70
2018-10-16T12:54:52.771Z,20.80
2018-10-16T12:56:55.373Z,20.90
2018-10-16T12:58:57.403Z,20.90
2018-10-16T13:00:59.526Z,20.90
2018-10-16T13:03:02.038Z,21.10
2018-10-16T13:05:05.263Z,21.20
2018-10-16T13:07:12.974Z,22.10
2018-10-16T13:09:15.347Z,22.80
2018-10-16T13:11:17.531Z,23.90
2018-10-16T13:13:19.588Z,23.80
2018-10-16T13:15:21.752Z,22.90
2018-10-16T13:17:23.984Z,22.50
2018-10-16T13:19:26.076Z,21.90
2018-10-16T13:21:28.193Z,21.40
2018-10-16T13:23:30.382Z,21.30
2018-10-16T13:25:32.530Z,21.00
2018-10-16T13:27:34.763Z,21.00
2018-10-16T13:29:37.215Z,21.00
2018-10-16T13:31:39.616Z,20.90
2018-10-16T13:33:41.730Z,21.00
2018-10-16T13:35:43.893Z,21.10
2018-10-16T13:37:46.673Z,21.30
2018-10-16T13:39:48.895Z,21.90
2018-10-16T13:41:51.038Z,22.20
2018-10-16T13:43:53.533Z,22.10
2018-10-16T13:45:55.772Z,21.90
2018-10-16T13:47:57.837Z,21.80
2018-10-16T13:50:00.528Z,21.60
2018-10-16T13:52:02.725Z,21.70
2018-10-16T13:54:04.986Z,21.90
2018-10-16T13:56:07.840Z,22.00
2018-10-16T13:58:09.991Z,22.10
2018-10-16T14:00:14.495Z,22.00
2018-10-16T14:02:16.886Z,21.90
2018-10-16T14:04:19.026Z,21.80
2018-10-16T14:06:21.155Z,21.60
2018-10-16T14:08:23.526Z,21.40
2018-10-16T14:10:25.702Z,21.50
2018-10-16T14:12:27.858Z,21.40
2018-10-16T14:14:30.094Z,21.30
2018-10-16T14:16:32.259Z,21.20
2018-10-16T14:18:34.358Z,21.10
2018-10-16T14:20:36.567Z,21.00
2018-10-16T14:22:39.925Z,20.90
2018-10-16T14:24:42.071Z,21.00
2018-10-16T14:26:44.219Z,20.90
2018-10-16T14:28:46.348Z,21.00
2018-10-16T14:30:48.657Z,21.00
2018-10-16T14:32:51.062Z,21.00
2018-10-16T14:34:53.202Z,21.00
2018-10-16T14:36:55.686Z,20.90
2018-10-16T14:38:58.198Z,21.00
2018-10-16T14:41:00.310Z,20.80
2018-10-16T14:43:02.578Z,20.80
2018-10-16T14:45:05.872Z,20.80
2018-10-16T14:47:08.028Z,20.90
2018-10-16T14:49:10.185Z,20.90
2018-10-16T14:51:12.702Z,20.80
2018-10-16T14:53:14.835Z,20.90
2018-10-16T14:55:17.018Z,20.80
2018-10-16T14:57:19.617Z,20.80
2018-10-16T14:59:22.121Z,20.70
2018-10-16T15:01:24.255Z,20.70
2018-10-16T15:03:26.394Z,20.70
2018-10-16T15:05:28.562Z,20.60
2018-10-16T15:07:30.690Z,20.60
2018-10-16T15:09:32.840Z,20.50
2018-10-16T15:11:34.982Z,20.50
2018-10-16T15:13:37.247Z,20.40
2018-10-16T15:15:39.415Z,20.30
2018-10-16T15:17:41.622Z,20.30
2018-10-16T15:19:57.010Z,20.30
2018-10-16T15:21:59.673Z,20.30
2018-10-16T15:24:01.821Z,20.30
2018-10-16T15:26:04.530Z,20.20
2018-10-16T15:28:06.715Z,20.20
2018-10-16T15:30:09.275Z,20.10
2018-10-16T15:32:11.456Z,20.10
2018-10-16T15:34:13.578Z,20.10
2018-10-16T15:36:15.759Z,20.10
2018-10-16T15:38:17.846Z,20.00
2018-10-16T15:40:20.004Z,20.20
2018-10-16T15:42:22.694Z,20.40
2018-10-16T15:44:25.172Z,20.50
2018-10-16T15:46:27.274Z,20.40
2018-10-16T15:48:29.409Z,20.30
2018-10-16T15:50:31.532Z,20.30
2018-10-16T15:52:33.631Z,20.20
2018-10-16T15:54:35.758Z,20.10
2018-10-16T15:56:37.880Z,19.90
2018-10-16T15:58:40.006Z,19.90
2018-10-16T16:00:42.313Z,19.80
2018-10-16T16:02:44.471Z,19.70
2018-10-16T16:04:46.869Z,19.70
2018-10-16T16:06:49.002Z,19.80
2018-10-16T16:08:51.144Z,19.90
2018-10-16T16:10:53.286Z,19.90
2018-10-16T16:12:55.760Z,19.90
2018-10-16T16:14:57.872Z,20.00
2018-10-16T16:16:59.991Z,20.00
2018-10-16T16:19:02.622Z,19.90
2018-10-16T16:21:05.154Z,19.90
2018-10-16T16:23:07.263Z,19.90
2018-10-16T16:25:10.883Z,19.80
2018-10-16T16:27:13.006Z,19.80
2018-10-16T16:29:15.138Z,19.80
2018-10-16T16:31:20.290Z,19.80
2018-10-16T16:33:22.578Z,19.80
2018-10-16T16:35:24.702Z,19.80
2018-10-16T16:37:26.836Z,19.80
2018-10-16T16:39:29.062Z,19.80
2018-10-16T16:41:31.091Z,19.80
2018-10-16T16:43:33.275Z,19.60
2018-10-16T16:45:35.391Z,19.50
2018-10-16T16:47:37.760Z,19.50
2018-10-16T16:49:39.894Z,19.50
2018-10-16T16:51:43.661Z,19.50
2018-10-16T16:53:46.068Z,19.50
2018-10-16T16:55:49.588Z,19.50
2018-10-16T16:57:57.634Z,19.50
2018-10-16T16:59:59.787Z,19.50
2018-10-16T17:02:01.998Z,19.60
2018-10-16T17:04:04.426Z,19.60
2018-10-16T17:06:06.820Z,19.60
2018-10-16T17:08:09.027Z,19.60
2018-10-16T17:10:11.178Z,19.50
2018-10-16T17:12:13.427Z,19.50
2018-10-16T17:14:15.700Z,19.60
2018-10-16T17:16:17.891Z,19.60
2018-10-16T17:18:20.218Z,19.60
2018-10-16T17:20:22.448Z,19.70
2018-10-16T17:22:24.551Z,19.80
2018-10-16T17:24:27.083Z,19.70
2018-10-16T17:26:29.469Z,19.80
2018-10-16T17:28:31.691Z,19.80
2018-10-16T17:30:33.874Z,19.80
2018-10-16T17:32:36.215Z,19.60
2018-10-16T17:34:38.353Z,19.60
2018-10-16T17:36:40.782Z,19.60
2018-10-16T17:38:43.622Z,19.50
2018-10-16T17:40:46.577Z,19.50
2018-10-16T17:42:48.751Z,19.50
2018-10-16T17:44:51.010Z,19.50
2018-10-16T17:46:53.299Z,19.40
2018-10-16T17:48:55.472Z,19.40
2018-10-16T17:50:57.759Z,19.30
2018-10-16T17:52:59.928Z,19.30
2018-10-16T17:55:02.235Z,19.30
2018-10-16T17:57:04.957Z,19.30
2018-10-16T17:59:07.088Z,19.30
2018-10-16T18:01:09.315Z,19.40
2018-10-16T18:03:11.578Z,19.30
2018-10-16T18:05:14.199Z,19.30
2018-10-16T18:07:16.400Z,19.40
2018-10-16T18:09:18.981Z,19.40
2018-10-16T18:11:21.374Z,19.40
2018-10-16T18:13:23.559Z,19.30
2018-10-16T18:15:25.796Z,19.40
2018-10-16T18:17:27.998Z,19.40
2018-10-16T18:19:30.233Z,19.30
2018-10-16T18:21:32.491Z,19.30
2018-10-16T18:23:34.838Z,19.30
2018-10-16T18:25:37.011Z,19.20
2018-10-16T18:27:39.853Z,19.20
2018-10-16T18:29:42.083Z,19.20
2018-10-16T18:31:44.254Z,19.20
2018-10-16T18:33:46.449Z,19.20
2018-10-16T18:35:48.640Z,19.20
2018-10-16T18:37:50.937Z,19.30
2018-10-16T18:39:53.145Z,19.30
2018-10-16T18:41:55.368Z,19.30
2018-10-16T18:43:57.556Z,19.30
2018-10-16T18:45:59.856Z,19.30
2018-10-16T18:48:02.077Z,19.30
2018-10-16T18:50:05.519Z,19.30
2018-10-16T18:52:07.735Z,19.30
2018-10-16T18:54:09.994Z,19.30
2018-10-16T18:56:12.167Z,19.40
2018-10-16T18:58:14.481Z,19.30
2018-10-16T19:00:17.791Z,19.20
2018-10-16T19:02:20.067Z,19.20
2018-10-16T19:04:22.243Z,19.20
2018-10-16T19:06:24.444Z,19.10
2018-10-16T19:08:26.782Z,19.10
2018-10-16T19:10:29.028Z,18.90
2018-10-16T19:12:31.218Z,19.00
2018-10-16T19:14:33.848Z,18.90
2018-10-16T19:16:36.259Z,18.90
2018-10-16T19:18:38.439Z,18.90
2018-10-16T19:20:40.701Z,19.00
2018-10-16T19:22:43.842Z,19.00
2018-10-16T19:24:46.434Z,19.00
2018-10-16T19:26:48.669Z,19.10
2018-10-16T19:28:52.456Z,19.20
2018-10-16T19:30:54.635Z,19.10
2018-10-16T19:32:57.208Z,19.00
2018-10-16T19:34:59.517Z,18.90
2018-10-16T19:37:01.868Z,19.00
2018-10-16T19:39:07.541Z,19.00
2018-10-16T19:41:09.946Z,19.00
2018-10-16T19:43:12.378Z,19.00
2018-10-16T19:45:14.782Z,19.00
2018-10-16T19:47:17.054Z,18.90
2018-10-16T19:49:19.397Z,18.90
2018-10-16T19:51:21.957Z,18.80
2018-10-16T19:53:24.187Z,18.80
2018-10-16T19:55:26.388Z,18.70
2018-10-16T19:57:28.708Z,18.70
2018-10-16T19:59:30.936Z,18.60
2018-10-16T20:01:33.479Z,18.60
2018-10-16T20:03:35.798Z,18.60
2018-10-16T20:05:39.250Z,18.60
2018-10-16T20:07:42.765Z,18.60
2018-10-16T20:09:46.712Z,18.60
2018-10-16T20:11:51.113Z,18.70
2018-10-16T20:13:53.547Z,18.60
2018-10-16T20:15:55.783Z,18.60
2018-10-16T20:17:58.012Z,18.60
2018-10-16T20:20:00.211Z,18.60
2018-10-16T20:22:02.419Z,18.60
2018-10-16T20:24:05.011Z,18.40
2018-10-16T20:26:07.900Z,18.20
2018-10-16T20:28:10.095Z,18.30
2018-10-16T20:30:12.331Z,18.40
2018-10-16T20:32:14.966Z,18.50
2018-10-16T20:34:17.145Z,18.40
2018-10-16T20:36:19.503Z,18.30
2018-10-16T20:38:21.675Z,18.40
2018-10-16T20:40:23.940Z,18.50
2018-10-16T20:42:26.131Z,18.60
2018-10-16T20:44:28.571Z,18.50
2018-10-16T20:46:30.902Z,18.40
2018-10-16T20:48:33.083Z,18.30
2018-10-16T20:50:35.344Z,18.20
2018-10-16T20:52:38.136Z,17.90
2018-10-16T20:54:40.496Z,17.70
2018-10-16T20:56:43.290Z,17.70
2018-10-16T20:58:45.601Z,17.80
2018-10-16T21:00:48.695Z,17.90
2018-10-16T21:02:50.993Z,17.90
2018-10-16T21:04:53.541Z,17.80
2018-10-16T21:06:57.018Z,17.80
2018-10-16T21:09:01.274Z,17.80
2018-10-16T21:11:04.131Z,17.80
2018-10-16T21:13:06.411Z,17.90
2018-10-16T21:15:09.532Z,18.00
2018-10-16T21:17:11.991Z,18.10
2018-10-16T21:19:14.279Z,18.20
2018-10-16T21:21:16.675Z,18.30
2018-10-16T21:23:19.292Z,18.40
2018-10-16T21:25:21.550Z,18.50
2018-10-16T21:27:23.759Z,18.50
2018-10-16T21:29:26.072Z,18.60
2018-10-16T21:31:28.685Z,18.60
2018-10-16T21:33:30.882Z,18.50
2018-10-16T21:35:33.233Z,18.40
2018-10-16T21:37:35.498Z,18.30
2018-10-16T21:39:37.730Z,18.30
2018-10-16T21:41:39.923Z,18.30
2018-10-16T21:43:42.340Z,18.20
2018-10-16T21:45:44.685Z,18.10
2018-10-16T21:47:46.850Z,18.10
2018-10-16T21:49:49.016Z,18.10
2018-10-16T21:51:51.534Z,18.20
2018-10-16T21:53:53.695Z,18.20
2018-10-16T21:55:55.851Z,18.20
2018-10-16T21:57:58.023Z,18.10
2018-10-16T22:00:00.466Z,18.00
2018-10-16T22:02:08.498Z,17.90
2018-10-16T22:04:10.666Z,17.80
2018-10-16T22:06:12.850Z,17.50
2018-10-16T22:08:15.100Z,17.50
2018-10-16T22:10:17.267Z,17.50
2018-10-16T22:12:19.461Z,17.40
2018-10-16T22:14:21.614Z,17.30
2018-10-16T22:16:23.776Z,17.20
2018-10-16T22:18:26.149Z,17.10
2018-10-16T22:20:28.338Z,17.20
2018-10-16T22:22:30.508Z,17.20
2018-10-16T22:24:32.694Z,17.30
2018-10-16T22:26:34.867Z,17.40
2018-10-16T22:28:37.052Z,17.30
2018-10-16T22:30:39.450Z,17.30
2018-10-16T22:32:41.664Z,17.20
2018-10-16T22:34:43.827Z,16.80
2018-10-16T22:36:46.223Z,16.80
2018-10-16T22:38:48.387Z,16.80
2018-10-16T22:40:50.573Z,16.60
2018-10-16T22:42:53.027Z,16.40
2018-10-16T22:44:55.199Z,16.30
2018-10-16T22:46:57.400Z,16.30
2018-10-16T22:48:59.687Z,16.40
2018-10-16T22:51:01.935Z,16.50
2018-10-16T22:53:04.333Z,16.60
2018-10-16T22:55:07.474Z,16.70
2018-10-16T22:57:09.686Z,16.80
2018-10-16T22:59:12.029Z,16.90
2018-10-16T23:01:14.269Z,17.00
2018-10-16T23:03:16.318Z,17.10
2018-10-16T23:05:18.514Z,17.10
2018-10-16T23:07:21.075Z,17.10
2018-10-16T23:09:23.359Z,17.10
2018-10-16T23:11:25.623Z,17.10
2018-10-16T23:13:27.808Z,17.10
2018-10-16T23:15:30.026Z,17.10
2018-10-16T23:17:32.252Z,17.00
2018-10-16T23:19:34.531Z,16.90
2018-10-16T23:21:36.758Z,17.00
2018-10-16T23:23:39.039Z,17.00
2018-10-16T23:25:41.229Z,17.10
2018-10-16T23:27:43.399Z,17.00
2018-10-16T23:29:45.607Z,16.90
2018-10-16T23:31:47.866Z,16.90
2018-10-16T23:33:50.032Z,16.80
2018-10-16T23:35:52.204Z,16.80
2018-10-16T23:37:54.700Z,16.80
2018-10-16T23:39:56.874Z,17.00
2018-10-16T23:41:59.073Z,17.10
2018-10-16T23:44:01.236Z,17.10
2018-10-16T23:46:03.802Z,17.10
2018-10-16T23:48:05.967Z,17.10
2018-10-16T23:50:08.216Z,17.00
2018-10-16T23:52:10.396Z,16.90
2018-10-16T23:54:12.711Z,17.00
2018-10-16T23:56:14.934Z,17.00
2018-10-16T23:58:17.170Z,16.90
